Time;durP1;ratioP1;P1;durP2;ratioP2;P2;SDS_P1;SDS_P2;PMS_P1;PMS_P2;Temp;Humidity;BMP_temperature;BMP_pressure;BME280_temperature;BME280_humidity;BME280_pressure;Samples;Min_cycle;Max_cycle;Signal;HPM_P1;HPM_P2
2020/12/07 00:00:59;;;;;;;13.65;8.93;;;;;;;;;;5040127;28;20087;-58
2020/12/07 00:03:25;;;;;;;11.90;8.02;;;;;;;;;;5054231;28;20025;-56
2020/12/07 00:05:51;;;;;;;11.63;8.05;;;;;;;;;;5054129;28;20053;-56
2020/12/07 00:08:17;;;;;;;12.02;8.23;;;;;;;;;;5054350;28;20029;-56
2020/12/07 00:10:43;;;;;;;13.32;8.45;;;;;;;;;;5052311;28;20029;-56
2020/12/07 00:13:09;;;;;;;13.25;8.07;;;;;;;;;;5053833;28;20033;-55
2020/12/07 00:15:35;;;;;;;13.82;8.43;;;;;;;;;;5054029;28;20112;-55
2020/12/07 00:18:01;;;;;;;12.52;8.23;;;;;;;;;;5054109;28;20052;-56
2020/12/07 00:20:28;;;;;;;11.13;7.90;;;;;;;;;;5054137;28;20025;-56
2020/12/07 00:22:55;;;;;;;12.48;7.88;;;;;;;;;;5033498;28;20070;-56
2020/12/07 00:25:21;;;;;;;11.68;7.38;;;;;;;;;;5033825;28;20040;-55
2020/12/07 00:27:47;;;;;;;10.45;7.32;;;;;;;;;;5033871;28;20060;-57
2020/12/07 00:30:13;;;;;;;10.23;7.38;;;;;;;;;;5033615;28;20036;-56
2020/12/07 00:32:39;;;;;;;10.60;7.63;;;;;;;;;;5034170;28;20033;-57
2020/12/07 00:35:06;;;;;;;10.02;7.30;;;;;;;;;;5037715;28;20045;-56
2020/12/07 00:37:32;;;;;;;11.02;8.02;;;;;;;;;;5033639;28;20025;-56
2020/12/07 00:39:58;;;;;;;11.13;7.45;;;;;;;;;;5033691;28;20038;-52
2020/12/07 00:42:24;;;;;;;10.82;7.28;;;;;;;;;;5033635;28;20481;-55
2020/12/07 00:44:50;;;;;;;10.23;7.18;;;;;;;;;;5033499;28;20021;-56
2020/12/07 00:47:16;;;;;;;12.00;6.60;;;;;;;;;;5033387;28;20071;-55
2020/12/07 00:49:42;;;;;;;10.20;6.82;;;;;;;;;;5032990;28;20029;-56
2020/12/07 00:52:08;;;;;;;11.07;6.90;;;;;;;;;;5032404;28;20025;-55
2020/12/07 00:54:35;;;;;;;9.88;6.72;;;;;;;;;;5032706;28;20041;-55
2020/12/07 00:57:01;;;;;;;9.30;6.65;;;;;;;;;;5032650;28;20033;-55
2020/12/07 00:59:28;;;;;;;10.25;7.00;;;;;;;;;;5032619;28;20021;-56
2020/12/07 01:01:54;;;;;;;9.68;6.90;;;;;;;;;;5033148;28;20056;-55
2020/12/07 01:04:21;;;;;;;11.30;6.82;;;;;;;;;;5032763;28;20022;-56
2020/12/07 01:06:47;;;;;;;10.27;6.75;;;;;;;;;;5032991;28;20104;-55
2020/12/07 01:09:16;;;;;;;10.20;6.88;;;;;;;;;;5032801;28;20076;-56
2020/12/07 01:11:42;;;;;;;9.60;6.68;;;;;;;;;;5033756;28;20025;-55
2020/12/07 01:14:14;;;;;;;10.27;6.60;;;;;;;;;;5032436;28;20026;-56
2020/12/07 01:16:41;;;;;;;10.68;6.68;;;;;;;;;;5032464;28;20480;-56
2020/12/07 01:19:07;;;;;;;10.93;6.95;;;;;;;;;;5032561;28;20464;-55
2020/12/07 01:21:34;;;;;;;12.15;6.70;;;;;;;;;;5032496;28;20025;-56
2020/12/07 01:24:01;;;;;;;9.10;6.80;;;;;;;;;;5032704;28;20037;-56
2020/12/07 01:26:27;;;;;;;9.82;6.60;;;;;;;;;;5032362;28;20033;-56
2020/12/07 01:28:54;;;;;;;10.77;6.50;;;;;;;;;;5032540;28;20192;-56
2020/12/07 01:31:20;;;;;;;10.45;7.53;;;;;;;;;;5032601;28;20022;-56
2020/12/07 01:33:46;;;;;;;10.70;6.72;;;;;;;;;;5032069;28;20096;-56
2020/12/07 01:36:12;;;;;;;9.45;6.60;;;;;;;;;;5032343;28;20111;-56
2020/12/07 01:38:39;;;;;;;11.35;7.05;;;;;;;;;;5032487;28;20025;-55
2020/12/07 01:41:05;;;;;;;10.50;6.32;;;;;;;;;;5033432;28;20036;-55
2020/12/07 01:43:31;;;;;;;9.88;6.45;;;;;;;;;;5032275;28;20021;-55
2020/12/07 01:45:58;;;;;;;11.13;6.80;;;;;;;;;;5032502;28;20033;-55
2020/12/07 01:48:27;;;;;;;11.70;6.30;;;;;;;;;;5032369;28;20026;-55
2020/12/07 01:50:54;;;;;;;9.10;6.18;;;;;;;;;;5032315;28;20025;-55
2020/12/07 01:53:21;;;;;;;10.48;6.18;;;;;;;;;;5032069;28;20049;-56
2020/12/07 01:55:47;;;;;;;8.95;5.72;;;;;;;;;;5032419;28;20124;-55
2020/12/07 01:58:13;;;;;;;9.35;5.30;;;;;;;;;;5032173;28;20032;-55
2020/12/07 02:00:40;;;;;;;10.50;5.80;;;;;;;;;;5032500;28;20025;-56
2020/12/07 02:03:06;;;;;;;8.35;5.65;;;;;;;;;;5032337;28;20075;-55
2020/12/07 02:05:34;;;;;;;9.27;5.68;;;;;;;;;;5032196;28;20476;-56
2020/12/07 02:08:19;;;;;;;8.38;5.45;;;;;;;;;;5032290;28;20029;-55
2020/12/07 02:10:45;;;;;;;8.10;5.63;;;;;;;;;;5032079;28;20421;-55
2020/12/07 02:13:11;;;;;;;11.30;5.65;;;;;;;;;;5032586;28;20469;-55
2020/12/07 02:15:38;;;;;;;9.63;5.22;;;;;;;;;;5032153;28;20037;-54
2020/12/07 02:18:05;;;;;;;7.88;5.43;;;;;;;;;;5036064;28;20021;-54
2020/12/07 02:20:31;;;;;;;9.13;5.45;;;;;;;;;;5046682;28;20401;-52
2020/12/07 02:22:57;;;;;;;7.95;5.55;;;;;;;;;;5044250;28;20052;-54
2020/12/07 02:25:23;;;;;;;8.10;5.07;;;;;;;;;;5033187;28;20112;-54
2020/12/07 02:27:50;;;;;;;7.63;5.15;;;;;;;;;;5045009;28;20073;-54
2020/12/07 02:30:17;;;;;;;7.70;5.13;;;;;;;;;;5031994;28;20025;-54
2020/12/07 02:32:44;;;;;;;8.32;5.50;;;;;;;;;;5037040;28;20057;-55
2020/12/07 02:35:11;;;;;;;7.95;5.05;;;;;;;;;;5039604;28;20029;-56
2020/12/07 02:37:37;;;;;;;8.98;5.28;;;;;;;;;;5038232;28;20491;-55
2020/12/07 02:40:04;;;;;;;8.07;5.10;;;;;;;;;;5031850;28;20052;-55
2020/12/07 02:42:32;;;;;;;8.73;5.40;;;;;;;;;;5031958;28;20072;-55
2020/12/07 02:44:59;;;;;;;8.85;5.38;;;;;;;;;;5031714;28;20026;-56
2020/12/07 02:47:26;;;;;;;8.60;5.50;;;;;;;;;;5032009;28;20033;-55
2020/12/07 02:49:54;;;;;;;7.05;4.97;;;;;;;;;;5031705;28;20179;-55
2020/12/07 02:52:23;;;;;;;7.18;4.78;;;;;;;;;;5040811;28;20037;-56
2020/12/07 02:54:50;;;;;;;7.40;5.38;;;;;;;;;;5040142;28;20132;-56
2020/12/07 02:57:16;;;;;;;9.63;5.55;;;;;;;;;;5035616;28;20088;-55
2020/12/07 02:59:42;;;;;;;8.45;5.20;;;;;;;;;;5035639;28;20489;-56
2020/12/07 03:02:08;;;;;;;8.25;5.13;;;;;;;;;;5039423;28;20064;-55
2020/12/07 03:04:34;;;;;;;9.05;5.25;;;;;;;;;;5046377;28;20024;-55
2020/12/07 03:07:00;;;;;;;7.95;5.20;;;;;;;;;;5055403;28;20024;-54
2020/12/07 03:09:26;;;;;;;7.30;4.95;;;;;;;;;;5035841;28;20071;-55
2020/12/07 03:11:52;;;;;;;6.93;4.85;;;;;;;;;;5039030;28;20432;-56
2020/12/07 03:14:18;;;;;;;7.30;4.75;;;;;;;;;;5046074;28;20464;-54
2020/12/07 03:16:44;;;;;;;7.20;4.63;;;;;;;;;;5038897;28;20040;-55
2020/12/07 03:19:11;;;;;;;9.80;5.18;;;;;;;;;;5050908;28;20024;-55
2020/12/07 03:21:37;;;;;;;9.90;5.28;;;;;;;;;;5055127;28;20057;-55
2020/12/07 03:24:05;;;;;;;7.70;5.00;;;;;;;;;;5055078;28;20610;-55
2020/12/07 03:26:32;;;;;;;7.28;4.85;;;;;;;;;;5054800;28;20039;-50
2020/12/07 03:28:59;;;;;;;9.20;5.28;;;;;;;;;;5053888;28;20029;-56
2020/12/07 03:31:25;;;;;;;8.25;5.13;;;;;;;;;;5054297;28;20048;-55
2020/12/07 03:33:51;;;;;;;9.35;4.90;;;;;;;;;;5053554;28;20127;-55
2020/12/07 03:36:17;;;;;;;10.23;5.13;;;;;;;;;;5054771;28;20033;-55
2020/12/07 03:38:43;;;;;;;8.95;4.63;;;;;;;;;;5054927;28;20025;-56
2020/12/07 03:41:09;;;;;;;8.38;4.97;;;;;;;;;;5054538;28;20036;-55
2020/12/07 03:43:35;;;;;;;6.90;4.55;;;;;;;;;;5054958;28;20024;-55
2020/12/07 03:46:01;;;;;;;8.18;4.70;;;;;;;;;;5054708;28;20025;-55
2020/12/07 03:48:27;;;;;;;7.13;4.88;;;;;;;;;;5054301;28;20040;-55
2020/12/07 03:50:53;;;;;;;7.53;4.88;;;;;;;;;;5054640;28;20037;-53
2020/12/07 03:53:19;;;;;;;6.90;4.93;;;;;;;;;;5053495;28;20416;-55
2020/12/07 03:55:45;;;;;;;7.20;4.93;;;;;;;;;;5052882;28;20098;-55
2020/12/07 03:58:11;;;;;;;10.27;5.22;;;;;;;;;;5054168;28;20070;-54
2020/12/07 04:00:37;;;;;;;9.50;5.50;;;;;;;;;;5043699;28;20099;-55
2020/12/07 04:03:06;;;;;;;10.73;5.13;;;;;;;;;;5054184;28;20067;-55
2020/12/07 04:05:37;;;;;;;8.18;4.90;;;;;;;;;;5053697;28;20021;-55
2020/12/07 04:08:04;;;;;;;7.57;5.47;;;;;;;;;;5054378;28;20029;-56
2020/12/07 04:10:30;;;;;;;8.32;5.13;;;;;;;;;;5054167;28;20464;-55
2020/12/07 04:12:56;;;;;;;8.07;4.93;;;;;;;;;;5054115;28;20464;-56
2020/12/07 04:15:22;;;;;;;9.25;5.40;;;;;;;;;;5053333;28;20052;-53
2020/12/07 04:17:48;;;;;;;8.13;5.15;;;;;;;;;;5040761;28;20096;-55
2020/12/07 04:20:14;;;;;;;8.98;5.70;;;;;;;;;;5053989;28;20484;-55
2020/12/07 04:22:40;;;;;;;9.35;5.55;;;;;;;;;;5044466;28;20017;-56
2020/12/07 04:25:06;;;;;;;8.50;5.55;;;;;;;;;;5034248;28;20038;-54
2020/12/07 04:27:32;;;;;;;9.52;6.13;;;;;;;;;;5038350;28;20116;-55
2020/12/07 04:29:58;;;;;;;8.95;5.88;;;;;;;;;;5033848;28;20068;-56
2020/12/07 04:32:24;;;;;;;9.68;5.95;;;;;;;;;;5033667;28;20075;-56
2020/12/07 04:34:50;;;;;;;10.57;5.38;;;;;;;;;;5033454;28;20052;-55
2020/12/07 04:37:16;;;;;;;9.15;5.60;;;;;;;;;;5033560;28;20025;-55
2020/12/07 04:39:42;;;;;;;7.82;5.03;;;;;;;;;;5033465;28;20022;-57
2020/12/07 04:42:08;;;;;;;8.35;5.03;;;;;;;;;;5033361;28;20029;-55
2020/12/07 04:44:34;;;;;;;7.68;5.15;;;;;;;;;;5033425;28;20022;-55
2020/12/07 04:47:00;;;;;;;8.32;5.30;;;;;;;;;;5033344;28;20105;-55
2020/12/07 04:49:31;;;;;;;9.55;5.60;;;;;;;;;;5033396;28;20469;-55
2020/12/07 04:51:58;;;;;;;8.02;5.35;;;;;;;;;;5033197;28;20025;-55
2020/12/07 04:54:25;;;;;;;8.40;5.53;;;;;;;;;;5032936;28;20053;-55
2020/12/07 04:56:52;;;;;;;10.00;5.80;;;;;;;;;;5032288;28;20031;-54
2020/12/07 04:59:20;;;;;;;9.68;5.80;;;;;;;;;;5033303;28;20022;-55
2020/12/07 05:01:46;;;;;;;9.48;5.45;;;;;;;;;;5033006;28;20022;-56
2020/12/07 05:04:12;;;;;;;9.20;5.45;;;;;;;;;;5032848;28;20670;-54
2020/12/07 05:06:38;;;;;;;8.75;5.43;;;;;;;;;;5033028;28;20067;-56
2020/12/07 05:09:04;;;;;;;8.63;5.43;;;;;;;;;;5032944;28;20017;-55
2020/12/07 05:11:30;;;;;;;8.70;5.35;;;;;;;;;;5032787;28;20017;-55
2020/12/07 05:14:13;;;;;;;11.07;6.10;;;;;;;;;;5032776;28;20022;-55
2020/12/07 05:16:39;;;;;;;11.57;6.25;;;;;;;;;;5032309;28;20045;-56
2020/12/07 05:19:11;;;;;;;9.50;5.88;;;;;;;;;;5038755;28;20104;-55
2020/12/07 05:21:38;;;;;;;8.57;5.43;;;;;;;;;;5032884;28;20022;-55
2020/12/07 05:24:06;;;;;;;11.00;6.00;;;;;;;;;;5032506;28;20034;-56
2020/12/07 05:26:35;;;;;;;11.00;7.05;;;;;;;;;;5032582;28;20029;-55
2020/12/07 05:29:24;;;;;;;12.52;6.80;;;;;;;;;;5032673;28;20366;-56
2020/12/07 05:31:49;;;;;;;11.32;6.32;;;;;;;;;;5032401;28;20022;-56
2020/12/07 05:34:15;;;;;;;9.75;5.97;;;;;;;;;;5034258;28;20025;-54
2020/12/07 05:36:42;;;;;;;7.93;5.63;;;;;;;;;;5038519;28;20028;-56
2020/12/07 05:39:08;;;;;;;10.05;5.65;;;;;;;;;;5031988;28;20041;-55
2020/12/07 05:41:34;;;;;;;8.57;5.57;;;;;;;;;;5032154;28;20039;-54
2020/12/07 05:44:02;;;;;;;8.18;5.68;;;;;;;;;;5031933;28;20084;-55
2020/12/07 05:46:29;;;;;;;7.80;5.10;;;;;;;;;;5032108;28;20539;-56
2020/12/07 05:48:56;;;;;;;9.48;5.75;;;;;;;;;;5037063;28;20037;-56
2020/12/07 05:51:26;;;;;;;10.80;5.95;;;;;;;;;;5032528;28;20084;-56
2020/12/07 05:53:53;;;;;;;10.18;5.97;;;;;;;;;;5036391;28;20041;-56
2020/12/07 05:56:19;;;;;;;9.15;5.50;;;;;;;;;;5032001;28;20037;-55
2020/12/07 05:59:04;;;;;;;9.13;6.03;;;;;;;;;;5036286;28;20096;-55
2020/12/07 06:01:31;;;;;;;7.93;5.45;;;;;;;;;;5031750;28;20060;-58
2020/12/07 06:03:57;;;;;;;10.60;6.18;;;;;;;;;;5032774;28;20025;-55
2020/12/07 06:06:34;;;;;;;10.30;6.28;;;;;;;;;;5032241;28;20034;-52
2020/12/07 06:09:05;;;;;;;9.18;5.93;;;;;;;;;;5032471;28;20067;-56
2020/12/07 06:11:34;;;;;;;9.07;5.93;;;;;;;;;;5031993;28;20029;-55
2020/12/07 06:14:00;;;;;;;8.40;5.57;;;;;;;;;;5032159;28;20048;-53
2020/12/07 06:16:27;;;;;;;7.75;5.18;;;;;;;;;;5032164;28;20038;-54
2020/12/07 06:18:56;;;;;;;8.40;5.32;;;;;;;;;;5047775;28;20083;-55
2020/12/07 06:21:23;;;;;;;8.20;5.60;;;;;;;;;;5050554;28;20025;-51
2020/12/07 06:23:49;;;;;;;17.55;10.63;;;;;;;;;;5038697;28;20033;-51
2020/12/07 06:26:16;;;;;;;10.63;6.70;;;;;;;;;;5031995;28;20109;-50
2020/12/07 06:28:47;;;;;;;11.45;7.50;;;;;;;;;;5035893;28;20033;-53
2020/12/07 06:31:16;;;;;;;9.13;5.95;;;;;;;;;;5036161;28;20018;-52
2020/12/07 06:33:44;;;;;;;8.25;5.40;;;;;;;;;;5036057;28;20493;-52
2020/12/07 06:36:28;;;;;;;9.57;5.60;;;;;;;;;;5035968;28;20419;-51
2020/12/07 06:39:05;;;;;;;9.57;5.47;;;;;;;;;;5035721;28;20017;-51
2020/12/07 06:41:44;;;;;;;8.38;5.72;;;;;;;;;;5035947;28;20121;-51
2020/12/07 06:44:12;;;;;;;10.60;5.97;;;;;;;;;;5035832;28;20508;-52
2020/12/07 06:46:49;;;;;;;9.35;6.22;;;;;;;;;;5035891;28;20064;-52
2020/12/07 06:49:15;;;;;;;9.18;6.28;;;;;;;;;;5035705;28;20084;-55
2020/12/07 06:51:44;;;;;;;11.52;6.30;;;;;;;;;;5035718;28;20408;-55
2020/12/07 06:55:03;;;;;;;16.85;9.43;;;;;;;;;;5035104;28;20045;-55
2020/12/07 06:57:19;;;;;;;18.63;9.43;;;;;;;;;;5035466;28;20068;-54
2020/12/07 06:59:52;;;;;;;10.98;7.20;;;;;;;;;;5035358;28;20018;-55
2020/12/07 07:02:18;;;;;;;12.65;7.88;;;;;;;;;;5035416;28;20381;-54
2020/12/07 07:04:50;;;;;;;90.70;50.70;;;;;;;;;;5035138;28;20377;-54
2020/12/07 07:07:16;;;;;;;;;;;;;;;;;;5035767;28;20029;-55
2020/12/07 07:09:43;;;;;;;9.38;5.65;;;;;;;;;;5035452;28;20004;-55
2020/12/07 07:12:09;;;;;;;10.05;6.13;;;;;;;;;;5035453;28;20030;-55
2020/12/07 07:14:35;;;;;;;11.98;7.38;;;;;;;;;;5034985;28;20512;-54
2020/12/07 07:17:01;;;;;;;18.40;9.90;;;;;;;;;;5035430;28;20028;-55
2020/12/07 07:19:27;;;;;;;9.43;6.10;;;;;;;;;;5055237;28;20074;-54
2020/12/07 07:21:53;;;;;;;13.82;8.32;;;;;;;;;;5054926;28;20036;-55
2020/12/07 07:24:21;;;;;;;8.32;5.60;;;;;;;;;;5054810;28;20032;-54
2020/12/07 07:26:47;;;;;;;12.23;7.28;;;;;;;;;;5055193;28;20037;-55
2020/12/07 07:29:14;;;;;;;12.85;7.20;;;;;;;;;;5054664;28;20035;-55
2020/12/07 07:31:40;;;;;;;8.98;4.97;;;;;;;;;;5055009;28;20025;-55
2020/12/07 07:34:06;;;;;;;7.82;4.68;;;;;;;;;;5054846;28;20032;-55
2020/12/07 07:36:32;;;;;;;9.00;5.57;;;;;;;;;;5054838;28;20033;-54
2020/12/07 07:38:59;;;;;;;8.63;4.90;;;;;;;;;;5053856;28;20017;-55
2020/12/07 07:41:26;;;;;;;9.18;4.80;;;;;;;;;;5054707;28;20025;-55
2020/12/07 07:43:52;;;;;;;7.75;5.07;;;;;;;;;;5054629;28;20044;-54
2020/12/07 07:46:21;;;;;;;9.23;5.93;;;;;;;;;;5054497;28;20465;-55
2020/12/07 07:49:20;;;;;;;10.07;5.60;;;;;;;;;;5054662;28;20052;-55
2020/12/07 07:52:25;;;;;;;7.43;4.97;;;;;;;;;;5054478;28;20562;-55
2020/12/07 08:16:13;;;;;;;10.73;7.03;;;;;;;;;;5047801;28;20566;-54
2020/12/07 08:18:40;;;;;;;13.35;7.65;;;;;;;;;;5047788;28;20166;-55
2020/12/07 08:21:06;;;;;;;14.00;7.88;;;;;;;;;;5053912;28;20384;-55
2020/12/07 08:23:33;;;;;;;12.65;8.55;;;;;;;;;;5053783;28;20106;-55
2020/12/07 08:26:00;;;;;;;19.08;10.30;;;;;;;;;;5052245;28;20021;-55
2020/12/07 08:28:28;;;;;;;11.00;6.40;;;;;;;;;;5053802;28;20028;-55
2020/12/07 08:31:13;;;;;;;10.60;6.55;;;;;;;;;;5053680;28;20055;-55
2020/12/07 08:33:53;;;;;;;16.48;8.90;;;;;;;;;;5039864;28;20059;-54
2020/12/07 08:36:19;;;;;;;10.43;6.88;;;;;;;;;;5037038;28;20054;-55
2020/12/07 08:38:46;;;;;;;14.27;8.68;;;;;;;;;;5040747;28;20020;-55
2020/12/07 08:41:16;;;;;;;9.38;6.18;;;;;;;;;;5047463;28;20022;-55
2020/12/07 08:43:48;;;;;;;15.55;8.35;;;;;;;;;;5046345;28;20496;-53
2020/12/07 08:46:17;;;;;;;18.80;10.98;;;;;;;;;;5053374;28;20025;-55
2020/12/07 08:48:43;;;;;;;17.58;10.10;;;;;;;;;;5053560;28;20021;-55
2020/12/07 08:51:10;;;;;;;11.23;7.18;;;;;;;;;;5039123;28;20062;-55
2020/12/07 08:53:37;;;;;;;9.63;6.53;;;;;;;;;;5053206;28;20048;-55
2020/12/07 08:56:04;;;;;;;11.18;6.88;;;;;;;;;;5053207;28;20111;-55
2020/12/07 08:58:30;;;;;;;9.80;6.25;;;;;;;;;;5053342;28;20021;-54
2020/12/07 09:00:58;;;;;;;10.38;5.82;;;;;;;;;;5053040;28;20021;-55
2020/12/07 09:03:24;;;;;;;14.32;7.20;;;;;;;;;;5053179;28;20021;-55
2020/12/07 09:05:50;;;;;;;10.00;5.53;;;;;;;;;;5053073;28;20021;-55
2020/12/07 09:08:16;;;;;;;7.97;5.13;;;;;;;;;;5038889;28;20100;-54
2020/12/07 09:10:43;;;;;;;14.55;7.85;;;;;;;;;;5053120;28;20029;-55
2020/12/07 09:13:09;;;;;;;7.43;4.90;;;;;;;;;;5052806;28;20481;-55
2020/12/07 09:15:35;;;;;;;10.02;5.75;;;;;;;;;;5052611;28;20116;-54
2020/12/07 09:18:01;;;;;;;9.80;6.13;;;;;;;;;;5052647;28;20051;-55
2020/12/07 09:20:27;;;;;;;9.45;6.13;;;;;;;;;;5051338;28;20025;-55
2020/12/07 09:22:53;;;;;;;14.45;9.75;;;;;;;;;;5052842;28;20032;-55
2020/12/07 09:25:19;;;;;;;10.10;6.32;;;;;;;;;;5051397;28;20100;-54
2020/12/07 09:27:45;;;;;;;13.10;7.03;;;;;;;;;;5052070;28;20504;-55
2020/12/07 09:30:11;;;;;;;12.18;6.55;;;;;;;;;;5052091;28;20061;-56
2020/12/07 09:32:37;;;;;;;12.52;7.20;;;;;;;;;;5052489;28;20025;-56
2020/12/07 09:35:04;;;;;;;9.85;6.00;;;;;;;;;;5052159;28;20041;-55
2020/12/07 09:37:30;;;;;;;11.57;6.57;;;;;;;;;;5052524;28;20049;-54
2020/12/07 09:39:56;;;;;;;12.35;7.53;;;;;;;;;;5052622;28;20024;-52
2020/12/07 09:42:22;;;;;;;8.30;5.15;;;;;;;;;;5038317;28;20017;-55
2020/12/07 09:44:48;;;;;;;11.77;6.93;;;;;;;;;;5052579;28;20374;-55
2020/12/07 09:47:14;;;;;;;13.30;6.60;;;;;;;;;;5052366;28;20024;-55
2020/12/07 09:49:40;;;;;;;15.70;6.13;;;;;;;;;;5052510;28;20021;-56
2020/12/07 09:52:07;;;;;;;9.23;5.47;;;;;;;;;;5052796;28;20021;-55
2020/12/07 09:54:37;;;;;;;11.32;7.10;;;;;;;;;;5052013;28;20040;-54
2020/12/07 09:57:04;;;;;;;8.77;5.43;;;;;;;;;;5052339;28;20041;-55
2020/12/07 09:59:30;;;;;;;9.30;5.35;;;;;;;;;;5052037;28;20423;-55
2020/12/07 10:01:56;;;;;;;8.68;5.38;;;;;;;;;;5050428;28;20025;-53
2020/12/07 10:04:22;;;;;;;12.45;7.60;;;;;;;;;;5052008;28;20021;-55
2020/12/07 10:06:48;;;;;;;8.95;5.72;;;;;;;;;;5052172;28;20120;-55
2020/12/07 10:09:14;;;;;;;11.85;6.95;;;;;;;;;;5051865;28;20051;-53
2020/12/07 10:11:40;;;;;;;13.35;7.63;;;;;;;;;;5052289;28;20017;-55
2020/12/07 10:14:06;;;;;;;14.60;7.60;;;;;;;;;;5052090;28;20096;-55
2020/12/07 10:16:32;;;;;;;15.88;8.02;;;;;;;;;;5051869;28;20029;-54
2020/12/07 10:18:58;;;;;;;12.57;7.05;;;;;;;;;;5052443;28;20064;-55
2020/12/07 10:21:25;;;;;;;14.38;8.75;;;;;;;;;;5036743;28;20442;-54
2020/12/07 10:23:51;;;;;;;16.00;8.10;;;;;;;;;;5051943;28;20021;-54
2020/12/07 10:26:21;;;;;;;10.77;6.68;;;;;;;;;;5051968;28;20044;-55
2020/12/07 10:28:47;;;;;;;19.13;9.77;;;;;;;;;;5051921;28;20020;-55
2020/12/07 10:31:13;;;;;;;17.38;9.32;;;;;;;;;;5051669;28;20021;-54
2020/12/07 10:33:39;;;;;;;11.80;6.13;;;;;;;;;;5051885;28;20017;-55
2020/12/07 10:36:07;;;;;;;15.20;7.60;;;;;;;;;;5051831;28;20461;-55
2020/12/07 10:38:33;;;;;;;11.82;7.10;;;;;;;;;;5051672;28;20457;-55
2020/12/07 10:40:59;;;;;;;10.90;5.72;;;;;;;;;;5045083;28;20055;-55
2020/12/07 10:43:26;;;;;;;10.43;6.68;;;;;;;;;;5044272;28;20021;-54
2020/12/07 10:45:52;;;;;;;11.88;6.95;;;;;;;;;;5046237;28;20534;-54
2020/12/07 10:48:18;;;;;;;14.27;8.27;;;;;;;;;;5036916;28;20029;-55
2020/12/07 10:50:44;;;;;;;14.15;8.65;;;;;;;;;;5031182;28;20030;-55
2020/12/07 10:53:10;;;;;;;13.75;7.95;;;;;;;;;;5034109;28;20050;-55
2020/12/07 10:55:36;;;;;;;12.05;7.50;;;;;;;;;;5033903;28;20044;-55
2020/12/07 10:58:02;;;;;;;10.27;6.30;;;;;;;;;;5033919;28;20495;-55
2020/12/07 11:00:28;;;;;;;10.40;6.13;;;;;;;;;;5042290;28;20029;-56
2020/12/07 11:02:54;;;;;;;11.82;6.90;;;;;;;;;;5031290;28;20512;-55
2020/12/07 11:05:20;;;;;;;13.18;7.65;;;;;;;;;;5039163;28;20117;-55
2020/12/07 11:07:49;;;;;;;10.43;6.25;;;;;;;;;;5033970;28;20036;-55
2020/12/07 11:10:15;;;;;;;10.23;6.55;;;;;;;;;;5031394;28;20495;-54
2020/12/07 11:12:44;;;;;;;16.58;8.23;;;;;;;;;;5030734;28;20022;-57
2020/12/07 11:15:10;;;;;;;11.50;6.78;;;;;;;;;;5032615;28;20042;-54
2020/12/07 11:17:36;;;;;;;11.57;7.43;;;;;;;;;;5035524;28;20049;-55
2020/12/07 11:20:02;;;;;;;16.20;8.90;;;;;;;;;;5034740;28;20025;-54
2020/12/07 11:22:28;;;;;;;12.65;7.43;;;;;;;;;;5034822;28;20128;-54
2020/12/07 11:24:54;;;;;;;27.85;15.40;;;;;;;;;;5040226;28;20168;-50
2020/12/07 11:27:20;;;;;;;14.80;7.72;;;;;;;;;;5037072;28;20376;-52
2020/12/07 11:29:46;;;;;;;12.20;7.30;;;;;;;;;;5034199;28;20070;-55
2020/12/07 11:32:12;;;;;;;9.45;6.20;;;;;;;;;;5043886;28;20014;-55
2020/12/07 11:34:38;;;;;;;11.50;7.13;;;;;;;;;;5034557;28;20116;-55
2020/12/07 11:37:04;;;;;;;14.02;7.65;;;;;;;;;;5034500;28;20084;-54
2020/12/07 11:44:34;;;;;;;12.90;7.28;;;;;;;;;;5035034;28;20025;-53
2020/12/07 11:47:07;;;;;;;13.27;8.00;;;;;;;;;;5034184;28;20065;-53
2020/12/07 11:49:33;;;;;;;;;;;;;;;;;;5034941;28;20026;-53
2020/12/07 11:52:02;;;;;;;13.25;7.63;;;;;;;;;;5034667;28;19909;-54
2020/12/07 11:54:29;;;;;;;12.15;7.63;;;;;;;;;;5033855;28;20092;-54
2020/12/07 11:56:55;;;;;;;10.77;6.43;;;;;;;;;;5034633;28;20429;-52
2020/12/07 11:59:21;;;;;;;9.48;5.57;;;;;;;;;;5050143;28;20025;-54
2020/12/07 12:01:47;;;;;;;13.35;7.25;;;;;;;;;;5050627;28;20485;-54
2020/12/07 12:04:13;;;;;;;11.45;6.68;;;;;;;;;;5033956;28;20384;-52
2020/12/07 12:06:39;;;;;;;14.75;8.70;;;;;;;;;;5034320;28;20040;-53
2020/12/07 12:09:06;;;;;;;13.77;7.55;;;;;;;;;;5044262;28;20100;-54
2020/12/07 12:11:36;;;;;;;15.50;9.68;;;;;;;;;;5051761;28;20029;-54
2020/12/07 12:14:03;;;;;;;12.93;6.97;;;;;;;;;;5048061;28;20018;-53
2020/12/07 12:16:29;;;;;;;13.48;8.13;;;;;;;;;;5034314;28;20117;-54
2020/12/07 12:18:56;;;;;;;13.65;8.48;;;;;;;;;;5033291;28;20029;-54
2020/12/07 12:21:23;;;;;;;13.95;8.73;;;;;;;;;;5033634;28;20029;-53
2020/12/07 12:23:49;;;;;;;14.93;9.18;;;;;;;;;;5033828;28;20099;-54
2020/12/07 12:26:16;;;;;;;15.65;8.95;;;;;;;;;;5047137;28;20092;-53
2020/12/07 12:28:42;;;;;;;14.07;7.63;;;;;;;;;;5040206;28;20377;-53
2020/12/07 12:31:08;;;;;;;10.55;6.65;;;;;;;;;;5040985;28;20028;-54
2020/12/07 12:33:34;;;;;;;13.55;8.43;;;;;;;;;;5033393;28;20455;-53
2020/12/07 12:36:00;;;;;;;14.75;8.63;;;;;;;;;;5033428;28;20127;-53
2020/12/07 12:38:26;;;;;;;11.93;6.93;;;;;;;;;;5047451;28;20021;-54
2020/12/07 12:40:52;;;;;;;10.57;6.75;;;;;;;;;;5033231;28;20028;-53
2020/12/07 12:43:18;;;;;;;11.15;6.65;;;;;;;;;;5047386;28;20036;-53
2020/12/07 12:45:44;;;;;;;10.25;6.63;;;;;;;;;;5033329;28;20061;-52
2020/12/07 12:48:10;;;;;;;10.02;6.50;;;;;;;;;;5033539;28;20042;-54
2020/12/07 12:50:37;;;;;;;11.88;7.35;;;;;;;;;;5033233;28;20079;-54
2020/12/07 12:53:03;;;;;;;9.82;6.50;;;;;;;;;;5033031;28;20045;-54
2020/12/07 12:55:29;;;;;;;15.05;8.68;;;;;;;;;;5049267;28;20557;-55
2020/12/07 12:57:55;;;;;;;8.65;6.10;;;;;;;;;;5053184;28;20112;-54
2020/12/07 13:00:21;;;;;;;9.95;6.65;;;;;;;;;;5052725;28;20032;-54
2020/12/07 13:02:47;;;;;;;9.32;6.15;;;;;;;;;;5046865;28;20021;-55
2020/12/07 13:05:14;;;;;;;10.15;6.38;;;;;;;;;;5032743;28;20220;-55
2020/12/07 13:07:40;;;;;;;17.00;9.40;;;;;;;;;;5032715;28;20463;-54
2020/12/07 13:10:06;;;;;;;12.20;7.57;;;;;;;;;;5033127;28;20075;-54
2020/12/07 13:12:32;;;;;;;12.02;7.35;;;;;;;;;;5033040;28;20376;-54
2020/12/07 13:14:58;;;;;;;11.52;7.25;;;;;;;;;;5032993;28;20449;-53
2020/12/07 13:17:28;;;;;;;9.35;6.25;;;;;;;;;;5046676;28;20096;-51
2020/12/07 13:19:55;;;;;;;11.43;7.20;;;;;;;;;;5032892;28;20037;-53
2020/12/07 13:24:56;;;;;;;11.25;6.57;;;;;;;;;;5032010;28;20037;-53
2020/12/07 13:30:07;;;;;;;11.82;7.30;;;;;;;;;;5032902;28;20044;-54
2020/12/07 13:32:33;;;;;;;11.52;7.10;;;;;;;;;;5032119;28;20388;-54
2020/12/07 13:35:01;;;;;;;22.60;11.05;;;;;;;;;;5034003;28;20399;-52
2020/12/07 13:37:27;;;;;;;12.70;8.45;;;;;;;;;;5031830;28;20021;-53
2020/12/07 13:39:53;;;;;;;12.88;7.65;;;;;;;;;;5035558;28;20029;-52
2020/12/07 13:42:19;;;;;;;40.30;18.77;;;;;;;;;;5034038;28;20029;-54
2020/12/07 13:44:46;;;;;;;33.33;18.70;;;;;;;;;;5032502;28;20040;-54
2020/12/07 13:47:12;;;;;;;47.97;22.67;;;;;;;;;;5031555;28;20033;-53
2020/12/07 13:49:38;;;;;;;34.75;19.25;;;;;;;;;;5032268;28;20026;-53
2020/12/07 13:52:13;;;;;;;40.15;20.63;;;;;;;;;;5030839;28;20117;-53
2020/12/07 13:54:39;;;;;;;20.65;12.32;;;;;;;;;;5029859;28;20045;-53
2020/12/07 13:57:06;;;;;;;17.17;10.77;;;;;;;;;;5031955;28;20046;-54
2020/12/07 13:59:32;;;;;;;21.73;12.45;;;;;;;;;;5032018;28;20036;-54
2020/12/07 14:01:58;;;;;;;15.15;9.60;;;;;;;;;;5030454;28;20037;-54
2020/12/07 14:06:53;;;;;;;13.68;9.48;;;;;;;;;;5043608;28;20040;-55
2020/12/07 14:09:20;;;;;;;11.82;8.25;;;;;;;;;;5037956;28;20021;-52
2020/12/07 14:11:46;;;;;;;12.15;7.90;;;;;;;;;;5030712;28;20423;-53
2020/12/07 14:14:12;;;;;;;10.77;6.90;;;;;;;;;;5029591;28;20052;-52
2020/12/07 14:16:38;;;;;;;14.10;7.90;;;;;;;;;;5030302;28;20037;-54
2020/12/07 14:40:20;;;;;;;10.80;6.50;;;;;;;;;;5039947;28;20036;-53
2020/12/07 14:42:46;;;;;;;8.85;6.07;;;;;;;;;;5045215;28;20025;-52
2020/12/07 14:45:27;;;;;;;9.02;5.82;;;;;;;;;;5031700;28;20034;-48
2020/12/07 14:48:04;;;;;;;11.23;6.78;;;;;;;;;;5046599;28;20025;-50
2020/12/07 14:53:06;;;;;;;;;;;;;;;;;;5038897;28;20038;-50
2020/12/07 14:55:41;;;;;;;10.07;6.10;;;;;;;;;;5038018;28;19920;-52
2020/12/07 15:06:08;;;;;;;12.70;7.88;;;;;;;;;;5047614;28;20548;-55
2020/12/07 15:11:33;;;;;;;11.70;7.95;;;;;;;;;;5035416;28;20068;-50
2020/12/07 15:14:04;;;;;;;13.98;9.10;;;;;;;;;;5038986;28;20043;-50
2020/12/07 15:16:30;;;;;;;12.55;8.07;;;;;;;;;;5044733;28;20033;-50
2020/12/07 15:18:57;;;;;;;11.27;7.53;;;;;;;;;;5041503;28;20025;-51
2020/12/07 15:21:24;;;;;;;12.95;8.55;;;;;;;;;;5047763;28;20032;-51
2020/12/07 15:23:50;;;;;;;12.40;7.82;;;;;;;;;;5034686;28;20082;-50
2020/12/07 15:26:16;;;;;;;16.23;10.63;;;;;;;;;;5034862;28;20075;-50
2020/12/07 15:28:43;;;;;;;14.88;10.45;;;;;;;;;;5036220;28;20025;-49
2020/12/07 15:31:10;;;;;;;14.05;8.55;;;;;;;;;;5042449;28;20048;-50
2020/12/07 15:33:37;;;;;;;13.70;8.60;;;;;;;;;;5041703;28;20493;-49
2020/12/07 15:36:07;;;;;;;13.85;9.00;;;;;;;;;;5044290;28;20026;-49
2020/12/07 15:38:35;;;;;;;13.15;8.35;;;;;;;;;;5037767;28;20032;-48
2020/12/07 15:41:01;;;;;;;12.38;8.10;;;;;;;;;;5033610;28;20037;-49
2020/12/07 15:43:27;;;;;;;12.95;8.90;;;;;;;;;;5034603;28;20092;-49
2020/12/07 15:45:54;;;;;;;12.70;8.15;;;;;;;;;;5035473;28;20033;-50